Time;durP1;ratioP1;P1;durP2;ratioP2;P2;SDS_P1;SDS_P2;PMS_P1;PMS_P2;Temp;Humidity;BMP_temperature;BMP_pressure;BME280_temperature;BME280_humidity;BME280_pressure;Samples;Min_cycle;Max_cycle;Signal;HPM_P1;HPM_P2
2021/03/23 00:00:57;;;;;;;14.43;8.77;;;11.40;59.60;;;;;;5049729;28;20023;-64
2021/03/23 00:03:32;;;;;;;13.75;9.13;;;11.30;60.10;;;;;;5055003;28;21776;-64
2021/03/23 00:05:58;;;;;;;16.17;8.00;;;11.30;59.60;;;;;;5049498;28;20075;-64
2021/03/23 00:08:51;;;;;;;15.20;8.73;;;11.30;60.10;;;;;;5047580;28;20041;-64
2021/03/23 00:11:22;;;;;;;12.55;8.13;;;11.20;59.60;;;;;;5045340;28;20045;-64
2021/03/23 00:13:48;;;;;;;13.55;8.25;;;11.20;59.60;;;;;;5071873;28;20028;-64
2021/03/23 00:16:17;;;;;;;12.95;8.75;;;11.20;59.60;;;;;;5054027;28;20032;-64
2021/03/23 00:18:43;;;;;;;11.00;7.75;;;11.30;59.60;;;;;;5040580;28;20017;-64
2021/03/23 00:21:09;;;;;;;13.80;8.30;;;11.20;60.00;;;;;;5048845;28;20378;-64
2021/03/23 00:23:36;;;;;;;10.60;6.90;;;11.20;60.20;;;;;;5055983;28;20021;-64
2021/03/23 00:26:02;;;;;;;13.32;7.28;;;11.30;60.20;;;;;;5047528;28;20113;-64
2021/03/23 00:28:28;;;;;;;13.55;8.48;;;11.30;59.50;;;;;;5059567;28;20104;-64
2021/03/23 00:30:55;;;;;;;12.80;7.78;;;11.30;59.60;;;;;;5057610;28;20029;-65
2021/03/23 00:33:22;;;;;;;10.75;6.82;;;11.30;59.70;;;;;;5060952;28;20025;-65
2021/03/23 00:35:52;;;;;;;13.18;7.78;;;11.20;60.10;;;;;;5066433;28;20461;-66
2021/03/23 00:38:18;;;;;;;13.52;7.75;;;11.20;60.10;;;;;;5063470;28;20017;-65
2021/03/23 00:40:44;;;;;;;13.30;7.90;;;11.20;60.00;;;;;;5050633;28;20301;-65
2021/03/23 00:43:11;;;;;;;14.50;8.82;;;11.30;59.50;;;;;;5062948;28;20036;-65
2021/03/23 00:45:40;;;;;;;13.90;8.73;;;11.20;60.00;;;;;;5058477;28;20032;-65
2021/03/23 00:48:07;;;;;;;12.98;7.65;;;11.20;59.80;;;;;;5060757;28;20033;-65
2021/03/23 00:50:33;;;;;;;13.57;7.75;;;11.20;59.80;;;;;;5053614;28;20033;-65
2021/03/23 00:52:59;;;;;;;11.55;8.18;;;11.30;59.40;;;;;;5049753;28;20293;-65
2021/03/23 00:55:24;;;;;;;11.73;6.85;;;11.30;59.30;;;;;;5065223;28;20170;-64
2021/03/23 00:57:50;;;;;;;12.93;7.07;;;11.30;59.00;;;;;;5074223;28;20030;-64
2021/03/23 01:00:18;;;;;;;11.43;7.18;;;11.30;59.50;;;;;;5043350;28;20047;-65
2021/03/23 01:02:45;;;;;;;10.73;6.95;;;11.30;59.00;;;;;;5058681;28;20147;-64
2021/03/23 01:05:12;;;;;;;11.68;8.68;;;11.20;58.90;;;;;;5067630;28;20144;-64
2021/03/23 01:07:38;;;;;;;10.32;6.93;;;11.20;59.40;;;;;;5048114;28;20028;-64
2021/03/23 01:10:06;;;;;;;12.38;7.57;;;11.20;59.40;;;;;;5049187;28;20021;-64
2021/03/23 01:12:32;;;;;;;11.10;7.60;;;11.20;59.30;;;;;;5050197;28;20127;-64
2021/03/23 01:14:58;;;;;;;10.77;6.47;;;11.20;59.30;;;;;;5048411;28;20108;-64
2021/03/23 01:17:26;;;;;;;12.50;7.10;;;11.20;59.30;;;;;;5048263;28;20029;-64
2021/03/23 01:19:52;;;;;;;13.35;7.40;;;11.10;59.10;;;;;;5054768;28;20032;-64
2021/03/23 01:22:17;;;;;;;10.40;6.15;;;11.20;59.10;;;;;;5048677;28;20095;-64
2021/03/23 01:24:43;;;;;;;13.27;6.78;;;11.30;58.30;;;;;;5053502;28;20033;-64
2021/03/23 01:27:09;;;;;;;12.30;7.07;;;11.30;58.30;;;;;;5049811;28;20155;-64
2021/03/23 01:29:35;;;;;;;11.57;7.18;;;11.20;58.80;;;;;;5046169;28;20430;-64
2021/03/23 01:32:00;;;;;;;11.48;7.45;;;11.20;58.80;;;;;;5059604;28;20071;-64
2021/03/23 01:34:26;;;;;;;12.82;7.25;;;11.20;59.00;;;;;;5051724;28;20175;-64
2021/03/23 01:36:52;;;;;;;12.73;7.78;;;11.20;59.20;;;;;;5043259;28;20033;-64
2021/03/23 01:39:18;;;;;;;14.93;7.57;;;11.10;59.30;;;;;;5078499;28;20390;-64
2021/03/23 01:41:43;;;;;;;12.65;7.35;;;11.20;59.30;;;;;;5048682;28;20437;-64
2021/03/23 01:44:09;;;;;;;13.75;7.63;;;11.10;59.20;;;;;;5081456;28;20383;-64
2021/03/23 01:46:45;;;;;;;11.32;7.07;;;11.20;58.80;;;;;;5057930;28;20115;-64
2021/03/23 01:49:19;;;;;;;13.85;7.50;;;11.10;59.30;;;;;;5057657;28;20025;-64
2021/03/23 01:51:49;;;;;;;11.13;6.07;;;11.20;58.90;;;;;;5065473;28;20319;-64
2021/03/23 01:54:22;;;;;;;13.13;7.43;;;11.10;59.40;;;;;;5049777;28;20031;-64
2021/03/23 01:56:50;;;;;;;10.32;6.88;;;11.10;59.50;;;;;;5051187;28;20087;-64
2021/03/23 01:59:17;;;;;;;10.18;6.50;;;11.20;58.80;;;;;;5056014;28;20066;-64
2021/03/23 02:01:42;;;;;;;13.93;8.05;;;11.20;59.30;;;;;;5062283;28;20532;-65
2021/03/23 02:04:09;;;;;;;11.35;6.57;;;11.20;59.20;;;;;;5049644;28;20025;-64
2021/03/23 02:06:47;;;;;;;10.32;6.75;;;11.20;59.30;;;;;;5063172;28;20136;-64
2021/03/23 02:09:16;;;;;;;11.70;6.53;;;11.30;58.60;;;;;;5048788;28;20028;-65
2021/03/23 02:11:47;;;;;;;13.45;7.47;;;11.20;59.10;;;;;;5053613;28;20047;-65
2021/03/23 02:14:15;;;;;;;12.65;7.00;;;11.20;58.90;;;;;;5046766;28;20359;-65
2021/03/23 02:16:40;;;;;;;11.20;6.45;;;11.20;58.40;;;;;;5039509;28;20033;-65
2021/03/23 02:19:06;;;;;;;12.48;7.45;;;11.20;58.40;;;;;;5045364;28;20093;-65
2021/03/23 02:21:32;;;;;;;12.32;7.18;;;11.20;58.40;;;;;;5042849;28;20098;-65
2021/03/23 02:23:58;;;;;;;9.75;6.30;;;11.20;59.00;;;;;;5055386;28;20582;-65
2021/03/23 02:26:29;;;;;;;11.23;7.30;;;11.20;59.00;;;;;;5046540;28;20407;-65
2021/03/23 02:29:08;;;;;;;13.98;8.45;;;11.20;58.60;;;;;;5052742;28;20481;-64
2021/03/23 02:31:40;;;;;;;13.23;7.75;;;11.20;58.60;;;;;;5066300;28;20017;-65
2021/03/23 02:34:09;;;;;;;10.73;7.05;;;11.20;58.70;;;;;;5046485;28;20216;-64
2021/03/23 02:36:37;;;;;;;12.90;7.80;;;11.20;58.70;;;;;;5038554;28;20053;-64
2021/03/23 02:39:08;;;;;;;15.70;9.35;;;11.10;59.10;;;;;;5035302;28;20029;-64
2021/03/23 02:41:35;;;;;;;15.55;9.23;;;11.10;59.20;;;;;;5047962;28;20415;-64
2021/03/23 02:44:01;;;;;;;16.85;8.90;;;11.20;58.90;;;;;;5071610;28;20469;-64
2021/03/23 02:46:27;;;;;;;13.27;8.02;;;11.10;59.30;;;;;;5055351;28;20104;-64
2021/03/23 02:48:52;;;;;;;16.25;9.55;;;11.10;59.40;;;;;;5052052;28;20142;-64
2021/03/23 02:51:19;;;;;;;15.27;9.23;;;11.20;59.10;;;;;;5052414;28;20029;-65
2021/03/23 02:53:46;;;;;;;15.15;8.60;;;11.20;59.20;;;;;;5053562;28;20529;-64
2021/03/23 02:56:13;;;;;;;16.23;10.73;;;11.10;59.60;;;;;;5049019;28;20471;-64
2021/03/23 02:58:38;;;;;;;17.90;11.25;;;11.20;59.30;;;;;;5053038;28;20025;-64
2021/03/23 03:01:05;;;;;;;16.33;10.10;;;11.10;59.30;;;;;;5046784;28;20108;-64
2021/03/23 03:03:31;;;;;;;19.27;12.00;;;11.10;59.90;;;;;;5070766;28;20056;-64
2021/03/23 03:05:57;;;;;;;17.33;11.73;;;11.10;59.60;;;;;;5050965;28;20504;-64
2021/03/23 03:08:23;;;;;;;17.58;11.13;;;11.00;60.00;;;;;;5052533;28;20386;-64
2021/03/23 03:10:50;;;;;;;17.38;12.00;;;11.00;60.00;;;;;;5050513;28;20040;-64
2021/03/23 03:13:20;;;;;;;21.40;12.55;;;11.10;60.20;;;;;;5065642;28;20224;-64
2021/03/23 03:15:46;;;;;;;17.52;11.15;;;11.10;60.20;;;;;;5053421;28;20029;-64
2021/03/23 03:18:12;;;;;;;20.35;13.55;;;11.10;60.00;;;;;;5055907;28;20371;-64
2021/03/23 03:20:38;;;;;;;17.38;11.43;;;11.00;60.40;;;;;;5056609;28;20056;-64
2021/03/23 03:23:04;;;;;;;19.55;13.00;;;11.10;60.50;;;;;;5057890;28;20025;-64
2021/03/23 03:25:29;;;;;;;18.90;12.07;;;11.10;60.00;;;;;;5052245;28;20033;-64
2021/03/23 03:27:55;;;;;;;20.85;12.88;;;11.10;59.90;;;;;;5051488;28;20037;-64
2021/03/23 03:30:26;;;;;;;23.48;13.27;;;11.10;60.40;;;;;;5061431;28;20112;-64
2021/03/23 03:32:53;;;;;;;19.40;12.63;;;11.10;59.90;;;;;;5037661;28;20337;-64
2021/03/23 03:35:21;;;;;;;20.98;13.82;;;11.10;59.90;;;;;;5048645;28;20067;-64
2021/03/23 03:37:47;;;;;;;21.45;13.60;;;11.10;59.80;;;;;;5031446;28;20101;-64
2021/03/23 03:40:19;;;;;;;20.75;13.65;;;11.10;59.90;;;;;;5038730;28;20103;-64
2021/03/23 03:42:45;;;;;;;23.20;13.35;;;11.10;59.90;;;;;;5053913;28;20037;-64
2021/03/23 03:45:15;;;;;;;20.45;13.00;;;11.10;60.00;;;;;;5051364;28;20539;-64
2021/03/23 03:47:40;;;;;;;28.65;16.00;;;11.10;60.00;;;;;;5050888;28;20077;-64
2021/03/23 03:50:07;;;;;;;25.00;15.70;;;11.00;60.50;;;;;;5050768;28;20519;-64
2021/03/23 03:52:34;;;;;;;22.77;14.07;;;11.00;60.20;;;;;;5050755;28;20060;-64
2021/03/23 03:54:59;;;;;;;21.00;14.93;;;11.00;60.30;;;;;;5048824;28;20651;-64
2021/03/23 03:57:25;;;;;;;21.88;13.98;;;10.90;60.40;;;;;;5052111;28;20037;-63
2021/03/23 03:59:51;;;;;;;21.80;13.95;;;10.80;60.90;;;;;;5051289;28;20061;-64
2021/03/23 04:02:17;;;;;;;23.25;14.38;;;10.90;60.60;;;;;;5064965;28;20494;-63
2021/03/23 04:04:45;;;;;;;22.13;13.95;;;10.90;60.60;;;;;;5050986;28;20430;-64
2021/03/23 04:07:11;;;;;;;20.30;15.00;;;10.90;60.70;;;;;;5049728;28;20088;-64
2021/03/23 04:09:38;;;;;;;23.35;15.35;;;10.90;60.80;;;;;;5047175;28;20091;-64
2021/03/23 04:12:05;;;;;;;25.17;15.35;;;10.90;60.80;;;;;;5050373;28;20513;-64
2021/03/23 04:14:31;;;;;;;23.73;15.73;;;10.90;60.80;;;;;;5039171;28;20467;-64
2021/03/23 04:16:57;;;;;;;24.70;15.60;;;10.80;61.30;;;;;;5030321;28;20040;-64
2021/03/23 04:19:23;;;;;;;24.88;16.95;;;10.90;60.70;;;;;;5042994;28;20029;-64
2021/03/23 04:21:48;;;;;;;25.90;16.77;;;10.90;60.60;;;;;;5052677;28;20083;-64
2021/03/23 04:24:14;;;;;;;25.65;15.73;;;10.90;60.60;;;;;;5039287;28;20044;-64
2021/03/23 04:26:39;;;;;;;27.88;15.82;;;10.90;60.60;;;;;;5050327;28;20040;-64
2021/03/23 04:29:05;;;;;;;25.17;16.80;;;10.90;60.60;;;;;;5065825;28;20510;-64
2021/03/23 04:31:38;;;;;;;26.63;16.70;;;10.90;61.10;;;;;;5046671;28;20100;-64
2021/03/23 04:34:05;;;;;;;22.52;15.18;;;10.90;60.50;;;;;;5031515;28;20056;-64
2021/03/23 04:36:30;;;;;;;26.63;15.65;;;10.90;60.50;;;;;;5030212;28;20190;-64
2021/03/23 04:38:56;;;;;;;25.05;17.42;;;10.90;60.50;;;;;;5039370;28;20047;-65
2021/03/23 04:41:22;;;;;;;24.10;15.80;;;10.90;60.50;;;;;;5050076;28;20036;-64
2021/03/23 04:43:51;;;;;;;25.80;16.77;;;10.90;60.60;;;;;;5050197;28;20025;-64
2021/03/23 04:46:23;;;;;;;28.55;17.30;;;10.80;61.10;;;;;;5049480;28;20483;-64
2021/03/23 04:48:49;;;;;;;26.25;15.90;;;10.90;60.70;;;;;;5051275;28;20025;-64
2021/03/23 04:51:15;;;;;;;24.00;16.77;;;10.80;61.10;;;;;;5048496;28;20048;-64
2021/03/23 04:53:42;;;;;;;30.15;18.10;;;10.80;60.80;;;;;;5050217;28;20025;-64
2021/03/23 04:56:18;;;;;;;26.38;17.02;;;10.80;61.30;;;;;;5047862;28;20040;-64
2021/03/23 04:58:44;;;;;;;30.17;16.65;;;10.90;60.80;;;;;;5050268;28;20025;-64
2021/03/23 05:01:09;;;;;;;28.73;17.63;;;10.80;61.00;;;;;;5042298;28;20095;-64
2021/03/23 05:03:35;;;;;;;26.35;17.02;;;10.80;61.10;;;;;;5045496;28;20243;-64
2021/03/23 05:06:09;;;;;;;26.30;15.77;;;10.70;61.60;;;;;;5060990;28;20470;-64
2021/03/23 05:08:37;;;;;;;28.13;16.90;;;10.80;61.10;;;;;;5050294;28;20033;-64
2021/03/23 05:11:04;;;;;;;24.70;16.38;;;10.80;61.60;;;;;;5049760;28;20528;-64
2021/03/23 05:13:29;;;;;;;25.98;16.48;;;10.80;61.10;;;;;;5050540;28;20029;-64
2021/03/23 05:15:55;;;;;;;27.20;15.40;;;10.80;61.60;;;;;;5049065;28;20029;-64
2021/03/23 05:18:21;;;;;;;33.38;18.75;;;10.80;61.20;;;;;;5048614;28;20127;-64
2021/03/23 05:20:46;;;;;;;27.50;16.92;;;10.80;61.70;;;;;;5050018;28;20417;-64
2021/03/23 05:23:13;;;;;;;26.05;16.55;;;10.70;61.20;;;;;;5035550;28;20344;-64
2021/03/23 05:25:40;;;;;;;26.23;16.67;;;10.80;61.40;;;;;;5031186;28;20375;-64
2021/03/23 05:28:06;;;;;;;31.65;18.55;;;10.70;61.90;;;;;;5041744;28;20114;-64
2021/03/23 05:30:32;;;;;;;25.52;17.10;;;10.70;61.40;;;;;;5049174;28;20121;-64
2021/03/23 05:32:58;;;;;;;34.05;18.73;;;10.80;61.40;;;;;;5049858;28;20029;-64
2021/03/23 05:35:24;;;;;;;27.27;17.38;;;10.80;61.50;;;;;;5049433;28;20087;-64
2021/03/23 05:37:50;;;;;;;28.45;16.55;;;10.70;62.00;;;;;;5057391;28;20082;-64
2021/03/23 05:40:40;;;;;;;30.35;17.77;;;10.80;61.60;;;;;;5052130;28;20059;-64
2021/03/23 05:43:24;;;;;;;29.55;18.27;;;10.70;62.80;;;;;;5047793;28;20021;-64
2021/03/23 05:45:56;;;;;;;28.50;17.75;;;10.70;62.00;;;;;;5048062;28;20037;-64
2021/03/23 05:48:29;;;;;;;24.88;17.77;;;10.70;62.10;;;;;;5041685;28;20858;-64
2021/03/23 05:51:10;;;;;;;25.80;16.50;;;10.60;62.10;;;;;;5049678;28;20135;-64
2021/03/23 05:53:38;;;;;;;27.02;17.70;;;10.70;61.80;;;;;;5030221;28;20041;-64
2021/03/23 05:56:04;;;;;;;25.55;16.27;;;10.70;61.80;;;;;;5044727;28;20281;-64
2021/03/23 05:58:39;;;;;;;26.05;17.33;;;10.70;61.90;;;;;;5049595;28;20039;-64
2021/03/23 06:01:36;;;;;;;26.15;16.52;;;10.60;62.40;;;;;;5048407;28;20104;-64
2021/03/23 06:04:58;;;;;;;28.67;18.77;;;10.60;62.50;;;;;;5049475;28;20084;-64
2021/03/23 06:07:24;;;;;;;28.25;18.10;;;10.60;62.60;;;;;;5035306;28;20045;-64
2021/03/23 06:09:49;;;;;;;29.17;17.75;;;10.60;62.00;;;;;;5049211;28;20043;-64
2021/03/23 06:12:30;;;;;;;36.38;17.65;;;10.60;62.10;;;;;;5063929;28;20057;-63
2021/03/23 06:15:37;;;;;;;28.55;17.85;;;10.60;62.70;;;;;;5063984;28;20113;-64
2021/03/23 06:18:22;;;;;;;27.77;17.70;;;10.60;62.80;;;;;;5048713;28;20033;-64
2021/03/23 06:21:01;;;;;;;29.35;19.05;;;10.70;62.30;;;;;;5048378;28;20431;-64
2021/03/23 06:23:46;;;;;;;28.55;17.30;;;10.60;62.70;;;;;;5046756;28;20040;-64
2021/03/23 06:26:45;;;;;;;27.90;17.35;;;10.70;62.70;;;;;;5050683;28;20070;-64
2021/03/23 06:29:25;;;;;;;27.63;17.13;;;10.80;62.60;;;;;;5053762;28;20062;-64
2021/03/23 06:32:06;;;;;;;29.23;17.88;;;11.00;62.40;;;;;;5042669;28;20067;-65
2021/03/23 06:34:35;;;;;;;29.73;17.45;;;11.30;61.60;;;;;;5049937;28;20086;-64
2021/03/23 06:37:15;;;;;;;28.05;18.25;;;11.40;61.20;;;;;;5038870;28;20074;-64
2021/03/23 06:39:41;;;;;;;29.30;16.25;;;11.40;61.70;;;;;;5049924;28;20029;-63
2021/03/23 06:42:07;;;;;;;31.27;18.63;;;11.50;61.20;;;;;;5054940;28;20047;-63
2021/03/23 06:44:35;;;;;;;28.00;17.73;;;11.80;60.20;;;;;;5057940;28;20537;-64
2021/03/23 06:47:01;;;;;;;24.23;15.35;;;11.70;60.70;;;;;;5055837;28;20344;-64
2021/03/23 06:49:31;;;;;;;25.38;17.25;;;11.80;60.00;;;;;;5052753;28;20315;-64
2021/03/23 06:52:03;;;;;;;30.33;18.45;;;11.80;59.90;;;;;;5062736;28;20356;-64
2021/03/23 06:54:36;;;;;;;32.10;18.65;;;11.80;60.40;;;;;;5051029;28;20166;-65
2021/03/23 06:57:11;;;;;;;27.75;17.55;;;11.80;60.40;;;;;;5049283;28;20029;-65
2021/03/23 06:59:53;;;;;;;34.20;18.67;;;11.80;60.30;;;;;;5048145;28;20029;-65
2021/03/23 07:02:43;;;;;;;26.52;17.92;;;12.00;59.80;;;;;;5047260;28;20029;-65
2021/03/23 07:05:22;;;;;;;26.73;16.70;;;11.90;60.40;;;;;;5049072;28;20032;-64
2021/03/23 07:07:58;;;;;;;26.25;15.07;;;12.10;59.80;;;;;;5039574;28;20029;-64
2021/03/23 07:10:27;;;;;;;29.80;18.83;;;12.10;60.20;;;;;;5049165;28;20029;-64
2021/03/23 07:12:53;;;;;;;28.38;17.20;;;12.50;59.50;;;;;;5053618;28;20075;-64
2021/03/23 07:15:23;;;;;;;25.15;16.65;;;12.80;58.90;;;;;;5067443;28;20033;-71
2021/03/23 07:17:55;;;;;;;35.08;20.30;;;13.20;58.20;;;;;;5051280;28;20108;-64
2021/03/23 07:20:33;;;;;;;32.17;18.83;;;13.60;57.50;;;;;;5064527;28;20147;-64
2021/03/23 07:23:02;;;;;;;36.22;18.73;;;13.90;56.60;;;;;;5047523;28;20025;-63
2021/03/23 07:25:40;;;;;;;30.05;20.15;;;14.10;56.10;;;;;;5050815;28;20706;-64
2021/03/23 07:28:37;;;;;;;32.65;19.48;;;14.10;55.80;;;;;;5043423;28;20029;-63
2021/03/23 07:31:21;;;;;;;36.20;20.58;;;14.00;56.00;;;;;;5047548;28;20025;-63
2021/03/23 07:34:05;;;;;;;;;;;13.80;56.40;;;;;;5058562;28;20017;-63
2021/03/23 07:36:33;;;;;;;35.00;19.35;;;14.00;56.40;;;;;;5066265;28;19980;-63
2021/03/23 07:39:22;;;;;;;37.00;19.35;;;14.00;56.90;;;;;;5057383;28;20450;-63
2021/03/23 07:42:28;;;;;;;40.05;22.73;;;14.20;56.70;;;;;;5024831;28;20064;-64
2021/03/23 07:45:02;;;;;;;36.60;19.67;;;14.50;55.60;;;;;;5033629;28;20159;-64
2021/03/23 07:47:38;;;;;;;34.72;23.15;;;14.70;55.30;;;;;;5031780;28;20195;-64
2021/03/23 07:50:14;;;;;;;43.65;25.48;;;14.70;54.10;;;;;;5035036;28;20387;-64
2021/03/23 07:52:49;;;;;;;46.33;28.17;;;14.30;54.80;;;;;;5032079;28;20041;-64
2021/03/23 07:55:27;;;;;;;42.55;24.20;;;14.20;55.60;;;;;;5035624;28;20032;-64
2021/03/23 07:58:21;;;;;;;42.97;27.33;;;13.70;56.70;;;;;;5031816;28;20029;-64
2021/03/23 08:01:16;;;;;;;40.55;25.73;;;13.70;57.30;;;;;;5052445;28;20028;-64
2021/03/23 08:03:55;;;;;;;41.03;22.55;;;14.00;57.20;;;;;;5030143;28;20648;-64
2021/03/23 08:06:34;;;;;;;38.17;25.67;;;13.90;57.60;;;;;;5032423;28;20029;-64
2021/03/23 08:09:15;;;;;;;41.70;26.20;;;14.00;57.10;;;;;;5032072;28;20033;-64
2021/03/23 08:12:17;;;;;;;50.50;27.20;;;13.90;57.60;;;;;;5032281;28;20866;-64
2021/03/23 08:15:06;;;;;;;50.35;30.50;;;14.10;57.20;;;;;;5033614;28;20136;-64
2021/03/23 08:17:50;;;;;;;44.47;28.20;;;14.60;57.10;;;;;;5034824;28;20132;-65
2021/03/23 08:20:31;;;;;;;52.80;31.10;;;15.70;55.40;;;;;;5034240;28;20037;-63
2021/03/23 08:23:26;;;;;;;45.20;30.35;;;16.50;52.80;;;;;;5034155;28;20025;-62
2021/03/23 08:26:12;;;;;;;49.20;31.90;;;16.20;52.30;;;;;;5034882;28;20489;-63
2021/03/23 08:28:48;;;;;;;50.28;30.75;;;15.00;54.40;;;;;;5025642;28;20057;-63
2021/03/23 08:31:42;;;;;;;52.05;30.38;;;14.70;55.20;;;;;;5031916;28;20141;-63
2021/03/23 08:34:21;;;;;;;49.67;28.92;;;14.30;55.70;;;;;;5031123;28;20096;-63
2021/03/23 08:37:19;;;;;;;48.45;28.73;;;14.10;56.40;;;;;;5026393;28;20030;-63
2021/03/23 08:39:53;;;;;;;51.30;31.63;;;13.70;57.60;;;;;;5036817;28;20124;-64
2021/03/23 08:42:22;;;;;;;47.42;28.00;;;13.40;58.20;;;;;;5053224;28;20032;-64
2021/03/23 08:45:19;;;;;;;46.92;28.05;;;13.20;58.80;;;;;;5036455;28;20124;-65
2021/03/23 08:47:48;;;;;;;48.65;28.13;;;13.00;59.50;;;;;;5031782;28;20510;-63
2021/03/23 08:50:20;;;;;;;50.10;29.25;;;12.80;60.50;;;;;;5036683;28;20472;-63
2021/03/23 08:52:54;;;;;;;52.78;29.13;;;12.70;61.00;;;;;;5033145;28;20115;-65
2021/03/23 08:55:30;;;;;;;48.00;26.67;;;12.60;61.50;;;;;;5034443;28;20069;-64
2021/03/23 08:57:58;;;;;;;51.28;29.50;;;12.50;61.70;;;;;;5043046;28;20063;-64
2021/03/23 09:00:54;;;;;;;45.65;27.13;;;12.40;62.30;;;;;;5047819;28;20474;-65
2021/03/23 09:03:20;;;;;;;53.22;29.25;;;12.30;62.80;;;;;;5033825;28;20033;-64
2021/03/23 09:05:52;;;;;;;50.75;29.13;;;12.10;63.40;;;;;;5030820;28;20408;-63
2021/03/23 09:08:20;;;;;;;54.28;29.70;;;12.10;63.90;;;;;;5047093;28;20143;-63
2021/03/23 09:10:51;;;;;;;53.45;31.00;;;12.00;63.80;;;;;;5032928;28;20132;-63
2021/03/23 09:13:36;;;;;;;54.38;29.92;;;11.90;64.40;;;;;;5032471;28;20159;-65
2021/03/23 09:16:04;;;;;;;44.28;28.88;;;11.80;65.00;;;;;;5029976;28;20036;-65
2021/03/23 09:18:34;;;;;;;51.67;29.65;;;11.80;65.40;;;;;;5031569;28;20029;-64
2021/03/23 09:21:00;;;;;;;52.40;29.10;;;11.80;65.80;;;;;;5035617;28;20048;-64
2021/03/23 09:23:27;;;;;;;51.75;27.83;;;11.70;66.40;;;;;;5037346;28;20033;-63
2021/03/23 09:25:57;;;;;;;50.55;27.35;;;11.60;67.00;;;;;;5033937;28;20474;-63
2021/03/23 09:28:29;;;;;;;58.60;30.58;;;11.50;67.20;;;;;;5028237;28;20034;-63
2021/03/23 09:31:19;;;;;;;48.90;26.73;;;11.50;67.40;;;;;;5029365;28;20033;-63
2021/03/23 09:33:52;;;;;;;49.72;27.80;;;11.60;67.40;;;;;;5032546;28;20501;-63
2021/03/23 09:36:48;;;;;;;48.80;25.02;;;11.60;67.60;;;;;;5032090;28;20036;-63
2021/03/23 09:39:16;;;;;;;46.97;26.42;;;11.60;67.50;;;;;;5031648;28;20033;-63
2021/03/23 09:42:11;;;;;;;50.05;29.75;;;11.70;67.60;;;;;;5028535;28;20036;-63
2021/03/23 09:44:42;;;;;;;51.47;25.63;;;11.80;67.50;;;;;;5031562;28;20079;-63
2021/03/23 09:47:36;;;;;;;53.40;29.10;;;11.80;67.40;;;;;;5030719;28;20045;-64
2021/03/23 09:50:04;;;;;;;57.67;25.88;;;11.90;66.90;;;;;;5032376;28;20055;-64
2021/03/23 09:52:32;;;;;;;51.75;28.05;;;11.90;67.20;;;;;;5033341;28;20029;-63
2021/03/23 09:55:00;;;;;;;55.47;27.58;;;11.80;67.60;;;;;;5049277;28;20806;-64
2021/03/23 09:57:30;;;;;;;55.42;26.20;;;11.70;67.90;;;;;;5052880;28;20422;-64
2021/03/23 09:59:59;;;;;;;47.22;27.10;;;11.70;67.90;;;;;;5035555;28;20065;-64
2021/03/23 10:02:33;;;;;;;62.60;28.73;;;12.90;68.30;;;;;;5037703;28;20033;-64
2021/03/23 10:05:23;;;;;;;49.75;25.40;;;11.80;67.80;;;;;;5039234;28;20110;-64
2021/03/23 10:07:51;;;;;;;46.83;24.98;;;11.70;68.20;;;;;;5034087;28;20865;-63
2021/03/23 10:10:26;;;;;;;45.92;24.58;;;11.70;68.20;;;;;;5038076;28;20060;-64
2021/03/23 10:12:54;;;;;;;47.25;24.73;;;11.80;68.10;;;;;;5038327;28;20117;-67
2021/03/23 10:15:29;;;;;;;44.60;22.75;;;11.90;67.80;;;;;;5048614;28;20190;-62
2021/03/23 10:18:10;;;;;;;46.92;26.50;;;11.90;67.70;;;;;;5033084;28;20025;-62
2021/03/23 10:20:35;;;;;;;43.97;24.60;;;11.90;68.00;;;;;;5036938;28;20041;-63
2021/03/23 10:23:03;;;;;;;45.92;27.00;;;11.80;68.20;;;;;;5045738;28;20052;-63
2021/03/23 10:25:29;;;;;;;43.58;23.92;;;11.90;68.30;;;;;;5043451;28;20087;-63
2021/03/23 10:28:02;;;;;;;53.47;26.00;;;12.00;67.90;;;;;;5070063;28;20044;-63
2021/03/23 10:30:28;;;;;;;43.10;23.90;;;12.10;67.40;;;;;;5030793;28;20039;-63
2021/03/23 10:32:59;;;;;;;43.65;24.27;;;12.20;67.10;;;;;;5028268;28;21164;-63
2021/03/23 10:35:49;;;;;;;46.58;28.50;;;12.30;66.70;;;;;;5034518;28;20458;-63
2021/03/23 10:38:21;;;;;;;45.58;25.33;;;12.40;66.20;;;;;;5033263;28;20136;-64
2021/03/23 10:40:49;;;;;;;46.30;26.13;;;12.50;66.00;;;;;;5049667;28;20032;-65
2021/03/23 10:43:28;;;;;;;41.35;23.92;;;12.50;66.00;;;;;;5029845;28;20467;-64
2021/03/23 10:45:54;;;;;;;44.35;24.35;;;12.00;66.10;;;;;;5046258;28;20132;-63
2021/03/23 10:48:34;;;;;;;41.28;24.40;;;12.30;66.70;;;;;;5052135;28;20052;-64
2021/03/23 10:51:20;;;;;;;49.80;26.75;;;12.20;66.70;;;;;;5052753;28;20028;-64
2021/03/23 10:54:06;;;;;;;42.38;24.25;;;12.30;66.60;;;;;;5053235;28;20437;-64
2021/03/23 10:56:38;;;;;;;53.38;31.33;;;12.20;67.10;;;;;;5060842;28;20127;-64
2021/03/23 10:59:14;;;;;;;52.28;28.83;;;12.20;66.40;;;;;;5050443;28;20017;-64
2021/03/23 11:02:05;;;;;;;54.08;28.88;;;12.10;66.70;;;;;;5045152;28;20059;-64
2021/03/23 11:04:34;;;;;;;49.33;27.92;;;12.00;67.40;;;;;;5030224;28;20033;-63
2021/03/23 11:07:22;;;;;;;48.85;26.45;;;12.00;67.50;;;;;;5045878;28;20060;-64
2021/03/23 11:09:57;;;;;;;50.08;29.17;;;12.10;67.40;;;;;;5039941;28;20032;-64
2021/03/23 11:12:24;;;;;;;46.75;24.90;;;12.20;67.00;;;;;;5050255;28;20049;-64
2021/03/23 11:14:49;;;;;;;45.83;27.92;;;12.20;66.70;;;;;;5053333;28;20025;-64
2021/03/23 11:17:20;;;;;;;53.13;28.15;;;12.40;66.30;;;;;;5050131;28;20029;-63
2021/03/23 11:19:50;;;;;;;42.80;25.13;;;12.40;66.20;;;;;;5050951;28;20044;-64
2021/03/23 11:22:20;;;;;;;49.72;29.45;;;12.50;65.90;;;;;;5049866;28;20343;-64
2021/03/23 11:24:46;;;;;;;44.72;25.38;;;12.50;65.90;;;;;;5051162;28;20021;-64
2021/03/23 11:27:12;;;;;;;43.85;25.42;;;12.50;66.10;;;;;;5049705;28;20143;-63
2021/03/23 11:29:38;;;;;;;48.03;26.33;;;12.60;66.10;;;;;;5050978;28;20029;-63
2021/03/23 11:32:04;;;;;;;49.05;26.50;;;12.70;66.00;;;;;;5050140;28;20036;-64
2021/03/23 11:34:29;;;;;;;42.85;23.65;;;12.90;65.20;;;;;;5045463;28;20065;-63
2021/03/23 11:36:55;;;;;;;42.88;24.90;;;12.90;65.00;;;;;;5041562;28;20194;-64
2021/03/23 11:39:21;;;;;;;48.08;25.13;;;12.90;65.50;;;;;;5050573;28;20111;-64
2021/03/23 11:42:31;;;;;;;48.90;26.55;;;12.90;64.40;;;;;;5039149;28;20044;-63
2021/03/23 11:45:21;;;;;;;44.83;28.83;;;12.80;64.70;;;;;;5041234;28;20336;-64
2021/03/23 11:48:02;;;;;;;47.08;28.27;;;12.80;64.90;;;;;;5049866;28;20116;-64
2021/03/23 11:50:31;;;;;;;40.60;24.13;;;12.80;65.00;;;;;;5049929;28;20071;-64
2021/03/23 11:52:58;;;;;;;47.97;24.13;;;12.90;65.30;;;;;;5060741;28;20044;-64
2021/03/23 11:55:29;;;;;;;48.58;26.52;;;12.80;65.00;;;;;;5055697;28;20064;-64
2021/03/23 11:57:54;;;;;;;45.28;25.63;;;12.80;65.00;;;;;;5067645;28;20028;-64
2021/03/23 12:00:25;;;;;;;45.00;25.58;;;12.80;65.20;;;;;;5050837;28;20028;-63
2021/03/23 12:02:50;;;;;;;47.28;27.08;;;12.80;65.30;;;;;;5051069;28;20066;-64
2021/03/23 12:05:17;;;;;;;47.53;26.20;;;12.80;65.20;;;;;;5050489;28;20120;-64
2021/03/23 12:07:42;;;;;;;48.25;24.38;;;12.80;65.20;;;;;;5052334;28;20398;-64
2021/03/23 12:10:19;;;;;;;42.05;26.00;;;12.80;65.10;;;;;;5050626;28;20101;-64
2021/03/23 12:12:50;;;;;;;46.13;26.75;;;13.00;65.10;;;;;;5052750;28;20057;-64
2021/03/23 12:15:22;;;;;;;48.22;26.60;;;13.00;64.90;;;;;;5050365;28;20481;-65
2021/03/23 12:17:52;;;;;;;48.50;26.73;;;13.10;64.60;;;;;;5050399;28;20103;-64
2021/03/23 12:20:34;;;;;;;54.05;27.83;;;13.10;64.50;;;;;;5062681;28;20037;-63
2021/03/23 12:23:00;;;;;;;50.90;27.02;;;13.20;64.30;;;;;;5041911;28;20329;-64
2021/03/23 12:25:26;;;;;;;47.30;26.33;;;13.20;63.90;;;;;;5046874;28;20541;-63
2021/03/23 12:27:51;;;;;;;44.30;25.67;;;13.10;64.10;;;;;;5047980;28;20159;-65
2021/03/23 12:30:18;;;;;;;49.83;26.73;;;13.20;63.70;;;;;;5061411;28;20068;-64
2021/03/23 12:32:43;;;;;;;53.72;25.85;;;13.20;63.50;;;;;;5055741;28;20037;-63
2021/03/23 12:35:16;;;;;;;50.35;28.10;;;13.10;64.10;;;;;;5050230;28;20033;-64
2021/03/23 12:37:43;;;;;;;47.95;25.98;;;14.00;64.80;;;;;;5052849;28;20029;-65
2021/03/23 12:40:12;;;;;;;51.13;26.42;;;13.00;64.40;;;;;;5043652;28;20029;-64
2021/03/23 12:42:38;;;;;;;51.67;28.48;;;12.90;64.90;;;;;;5051296;28;20417;-64
2021/03/23 12:45:07;;;;;;;49.03;29.70;;;12.90;64.70;;;;;;5042819;28;20194;-63
2021/03/23 12:47:34;;;;;;;46.20;25.88;;;12.80;65.10;;;;;;5056500;28;20086;-64
2021/03/23 12:49:59;;;;;;;46.55;24.50;;;12.90;65.00;;;;;;5049515;28;20032;-64
2021/03/23 12:52:25;;;;;;;44.95;25.85;;;12.90;65.50;;;;;;5050641;28;20033;-64
2021/03/23 12:54:56;;;;;;;49.03;27.75;;;13.00;65.20;;;;;;5048021;28;20155;-64